Time;durP1;ratioP1;P1;durP2;ratioP2;P2;SDS_P1;SDS_P2;PMS_P1;PMS_P2;Temp;Humidity;BMP_temperature;BMP_pressure;BME280_temperature;BME280_humidity;BME280_pressure;Samples;Min_cycle;Max_cycle;Signal;HPM_P1;HPM_P2
2023/10/06 00:01:51;;;;;;;12.65;6.60;;;13.40;99.90;;;;;;4968813;28;20598;-80
2023/10/06 00:04:19;;;;;;;14.35;6.35;;;13.50;99.90;;;;;;4986066;28;20046;-80
2023/10/06 00:06:45;;;;;;;10.30;5.65;;;13.50;99.90;;;;;;4995106;28;20124;-80
2023/10/06 00:09:48;;;;;;;12.48;6.53;;;13.50;99.90;;;;;;5002368;28;20077;-80
2023/10/06 00:12:07;;;;;;;13.30;6.82;;;13.50;99.90;;;;;;4992944;28;20061;-82
2023/10/06 00:14:39;;;;;;;16.75;7.35;;;13.50;99.90;;;;;;4994177;28;20501;-81
2023/10/06 00:17:15;;;;;;;12.82;7.10;;;13.50;99.90;;;;;;4985665;28;20074;-81
2023/10/06 00:19:42;;;;;;;14.77;7.97;;;13.50;99.90;;;;;;5006303;28;20529;-81
2023/10/06 00:22:17;;;;;;;14.70;7.60;;;13.50;99.90;;;;;;4980833;28;20126;-80
2023/10/06 00:24:50;;;;;;;15.25;8.10;;;13.50;99.90;;;;;;5000307;28;20042;-80
2023/10/06 00:27:23;;;;;;;12.48;8.32;;;13.60;99.90;;;;;;4981287;28;20038;-80
2023/10/06 00:29:54;;;;;;;16.75;8.48;;;13.60;99.90;;;;;;4989662;28;20065;-81
2023/10/06 00:32:26;;;;;;;15.23;8.38;;;13.60;99.90;;;;;;5006484;28;20121;-80
2023/10/06 00:34:54;;;;;;;11.65;8.57;;;13.60;99.90;;;;;;5001553;28;20073;-80
2023/10/06 00:37:23;;;;;;;14.85;8.00;;;13.70;99.90;;;;;;4972741;28;20041;-81
2023/10/06 00:39:50;;;;;;;14.13;8.40;;;13.70;99.90;;;;;;4990390;28;20081;-80
2023/10/06 00:42:20;;;;;;;13.18;8.13;;;13.70;99.90;;;;;;5003542;28;20128;-81
2023/10/06 00:44:47;;;;;;;12.82;8.27;;;13.70;99.90;;;;;;4991518;28;20033;-81
2023/10/06 00:47:13;;;;;;;12.82;8.70;;;13.70;99.90;;;;;;4981680;28;20104;-82
2023/10/06 00:49:40;;;;;;;15.55;9.07;;;13.70;99.90;;;;;;5001500;28;20042;-81
2023/10/06 00:52:08;;;;;;;11.35;8.25;;;13.70;99.90;;;;;;4983594;28;20030;-80
2023/10/06 00:54:34;;;;;;;13.73;8.43;;;13.70;99.90;;;;;;5000110;28;20042;-80
2023/10/06 00:57:08;;;;;;;16.23;8.52;;;13.70;99.90;;;;;;4983068;28;20504;-80
2023/10/06 00:59:37;;;;;;;18.00;8.32;;;13.70;99.90;;;;;;4993122;28;20034;-81
2023/10/06 01:02:11;;;;;;;11.85;7.80;;;13.70;99.90;;;;;;4998132;28;20041;-80
2023/10/06 01:04:44;;;;;;;15.10;8.35;;;13.70;99.90;;;;;;4985912;28;20125;-80
2023/10/06 01:07:16;;;;;;;;;;;13.70;99.90;;;;;;4985315;28;20054;-81
2023/10/06 01:10:06;;;;;;;12.35;7.82;;;13.70;99.90;;;;;;4981066;28;19956;-81
2023/10/06 01:12:32;;;;;;;15.15;8.40;;;13.60;99.90;;;;;;4987001;28;20574;-80
2023/10/06 01:15:17;;;;;;;11.55;8.10;;;13.70;99.90;;;;;;4972483;28;20038;-81
2023/10/06 01:17:47;;;;;;;12.45;8.07;;;13.60;99.90;;;;;;5000913;28;20038;-80
2023/10/06 01:23:22;;;;;;;14.50;8.60;;;13.60;99.90;;;;;;4913699;29;20044;-81
2023/10/06 01:25:54;;;;;;;14.35;8.10;;;13.60;99.90;;;;;;4954817;28;20285;-81
2023/10/06 01:28:23;;;;;;;14.25;8.40;;;13.60;99.90;;;;;;4981599;28;20045;-80
2023/10/06 01:30:51;;;;;;;13.50;8.02;;;13.60;99.90;;;;;;4982252;28;20561;-79
2023/10/06 01:33:17;;;;;;;16.13;8.27;;;13.50;99.90;;;;;;4987875;28;20098;-79
2023/10/06 01:35:45;;;;;;;15.18;9.23;;;13.50;99.90;;;;;;4984927;28;20519;-81
2023/10/06 01:38:23;;;;;;;16.70;9.27;;;13.50;99.90;;;;;;4985511;28;20193;-81
2023/10/06 01:40:53;;;;;;;17.13;7.70;;;13.50;99.90;;;;;;5001698;28;20038;-80
2023/10/06 01:43:29;;;;;;;17.80;8.88;;;13.50;99.90;;;;;;4984912;28;20034;-81
2023/10/06 01:45:55;;;;;;;12.18;7.75;;;13.50;99.90;;;;;;5003443;28;20039;-79
2023/10/06 01:50:49;;;;;;;13.18;8.80;;;13.50;99.90;;;;;;4981066;28;20050;-81
2023/10/06 01:53:20;;;;;;;17.83;9.02;;;13.50;99.90;;;;;;4994616;28;20034;-81
2023/10/06 01:55:52;;;;;;;13.80;8.35;;;13.50;99.90;;;;;;4970698;28;20046;-80
2023/10/06 01:58:18;;;;;;;12.63;7.90;;;13.50;99.90;;;;;;4987218;28;20124;-80
2023/10/06 02:00:48;;;;;;;19.60;8.88;;;13.50;99.90;;;;;;5003334;28;20400;-80
2023/10/06 02:03:18;;;;;;;12.88;8.52;;;13.50;99.90;;;;;;4988875;28;20058;-81
2023/10/06 02:05:44;;;;;;;13.85;8.00;;;13.50;99.90;;;;;;5004825;28;20048;-80
2023/10/06 02:08:10;;;;;;;16.13;8.32;;;13.50;99.90;;;;;;4983577;28;20085;-80
2023/10/06 02:10:37;;;;;;;13.23;8.27;;;13.50;99.90;;;;;;5004591;28;20136;-81
2023/10/06 02:13:04;;;;;;;13.55;8.30;;;13.50;99.90;;;;;;4983446;28;20052;-80
2023/10/06 02:15:32;;;;;;;13.18;8.73;;;13.50;99.90;;;;;;5004956;28;20494;-81
2023/10/06 02:17:57;;;;;;;17.20;8.63;;;13.50;99.90;;;;;;4990246;28;20053;-81
2023/10/06 02:22:55;;;;;;;13.10;8.48;;;13.50;99.90;;;;;;5006201;28;20552;-80
2023/10/06 02:25:22;;;;;;;16.90;9.13;;;13.50;99.90;;;;;;5003688;28;20140;-81
2023/10/06 02:27:50;;;;;;;20.02;9.18;;;13.50;99.90;;;;;;4982319;28;20281;-81
2023/10/06 02:30:24;;;;;;;12.00;7.95;;;13.50;99.90;;;;;;4972423;28;20285;-80
2023/10/06 02:32:51;;;;;;;14.60;9.07;;;13.50;99.90;;;;;;4985382;28;20117;-81
2023/10/06 02:35:17;;;;;;;18.27;9.32;;;13.50;99.90;;;;;;4989232;28;20043;-80
2023/10/06 02:37:46;;;;;;;15.63;9.10;;;13.50;99.90;;;;;;4992171;28;20109;-80
2023/10/06 02:40:13;;;;;;;13.82;9.10;;;13.40;99.90;;;;;;4986611;28;20189;-81
2023/10/06 02:42:52;;;;;;;14.82;8.68;;;13.40;99.90;;;;;;4985240;28;20489;-80
2023/10/06 02:45:20;;;;;;;14.27;9.15;;;13.40;99.90;;;;;;5011025;28;20054;-80
2023/10/06 02:47:51;;;;;;;13.70;8.68;;;13.40;99.90;;;;;;4983322;28;20034;-80
2023/10/06 02:50:20;;;;;;;15.50;9.60;;;13.40;99.90;;;;;;5017134;28;20072;-81
2023/10/06 02:52:47;;;;;;;17.15;10.43;;;13.40;99.90;;;;;;4991986;28;20065;-80
2023/10/06 02:55:31;;;;;;;13.70;9.93;;;13.40;99.90;;;;;;5005013;28;20055;-80
2023/10/06 02:57:58;;;;;;;16.15;9.70;;;13.30;99.90;;;;;;4987498;28;20070;-79
2023/10/06 03:05:49;;;;;;;;;;;13.30;99.90;;;;;;4983987;28;20045;-80
2023/10/06 03:08:20;;;;;;;17.65;10.52;;;13.30;99.90;;;;;;5000638;28;20444;-79
2023/10/06 03:10:48;;;;;;;15.45;9.55;;;13.20;99.90;;;;;;4987130;28;20037;-80
2023/10/06 03:14:06;;;;;;;17.75;10.48;;;13.20;99.90;;;;;;4987790;28;20038;-79
2023/10/06 03:16:10;;;;;;;16.83;11.02;;;13.20;99.90;;;;;;4989394;28;20100;-79
2023/10/06 03:18:36;;;;;;;21.20;10.77;;;13.20;99.90;;;;;;4983935;28;20034;-79
2023/10/06 03:21:15;;;;;;;16.58;10.23;;;13.20;99.90;;;;;;4985373;28;20495;-81
2023/10/06 03:23:45;;;;;;;17.13;10.00;;;13.10;99.90;;;;;;4985807;28;20037;-80
2023/10/06 03:26:25;;;;;;;19.02;9.93;;;13.10;99.90;;;;;;5004878;28;20041;-80
2023/10/06 03:28:53;;;;;;;16.55;9.80;;;13.10;99.90;;;;;;4993335;28;20121;-80
2023/10/06 03:33:50;;;;;;;14.82;9.68;;;13.10;99.90;;;;;;4993300;28;20432;-80
2023/10/06 03:36:16;;;;;;;17.95;9.65;;;13.00;99.90;;;;;;4987829;28;20558;-79
2023/10/06 03:38:55;;;;;;;15.50;8.95;;;13.00;99.90;;;;;;5028683;28;20049;-81
2023/10/06 03:41:31;;;;;;;13.70;8.73;;;13.00;99.90;;;;;;5012369;28;20060;-80
2023/10/06 03:44:00;;;;;;;15.30;9.43;;;13.00;99.90;;;;;;5012364;28;20570;-81
2023/10/06 03:46:31;;;;;;;14.68;8.32;;;13.00;99.90;;;;;;5000962;28;20048;-80
2023/10/06 03:49:03;;;;;;;13.32;9.20;;;12.90;99.90;;;;;;5008551;28;20046;-80
2023/10/06 03:51:29;;;;;;;18.10;9.35;;;12.90;99.90;;;;;;4998953;28;20520;-80
2023/10/06 03:53:56;;;;;;;14.63;8.82;;;12.90;99.90;;;;;;4989259;28;20038;-81
2023/10/06 03:56:22;;;;;;;13.18;8.68;;;12.90;99.90;;;;;;4982424;28;20045;-81
2023/10/06 03:58:48;;;;;;;19.33;9.10;;;12.90;99.90;;;;;;4979226;28;20033;-80
2023/10/06 04:01:26;;;;;;;15.23;8.50;;;12.90;99.90;;;;;;4988314;28;20037;-80
2023/10/06 04:03:58;;;;;;;16.90;9.45;;;12.90;99.90;;;;;;5002220;28;20045;-80
2023/10/06 04:06:25;;;;;;;15.10;9.15;;;12.90;99.90;;;;;;4985802;28;20156;-80
2023/10/06 04:08:57;;;;;;;17.02;9.07;;;12.90;99.90;;;;;;4998829;28;20516;-80
2023/10/06 04:11:22;;;;;;;17.17;8.57;;;12.90;99.90;;;;;;4982634;28;20046;-80
2023/10/06 04:13:48;;;;;;;16.73;9.05;;;12.80;99.90;;;;;;4979398;28;20065;-80
2023/10/06 04:16:14;;;;;;;15.15;8.95;;;12.80;99.90;;;;;;5008204;28;20033;-79
2023/10/06 04:18:41;;;;;;;14.55;8.35;;;12.80;99.90;;;;;;4968580;28;20550;-80
2023/10/06 04:21:11;;;;;;;12.90;8.93;;;12.80;99.90;;;;;;4998321;28;20197;-80
2023/10/06 04:23:41;;;;;;;14.00;8.45;;;12.80;99.90;;;;;;4997536;28;20524;-81
2023/10/06 04:26:10;;;;;;;17.40;9.38;;;12.80;99.90;;;;;;5000848;28;20122;-79
2023/10/06 04:28:37;;;;;;;12.27;8.88;;;12.80;99.90;;;;;;5006661;28;20128;-80
2023/10/06 04:31:05;;;;;;;13.93;9.40;;;12.80;99.90;;;;;;4982799;28;20169;-80
2023/10/06 04:33:32;;;;;;;13.25;9.30;;;12.80;99.90;;;;;;4990896;28;20038;-80
2023/10/06 04:36:11;;;;;;;18.27;9.10;;;12.80;99.90;;;;;;4988177;28;20521;-80
2023/10/06 04:38:40;;;;;;;16.45;8.88;;;12.80;99.90;;;;;;4990194;28;20111;-80
2023/10/06 04:41:10;;;;;;;17.65;8.90;;;12.80;99.90;;;;;;4982346;28;20052;-79
2023/10/06 04:43:44;;;;;;;13.98;9.00;;;12.80;99.90;;;;;;4985701;28;20401;-80
2023/10/06 04:46:10;;;;;;;16.88;9.32;;;12.90;99.90;;;;;;4997596;28;20049;-81
2023/10/06 04:48:36;;;;;;;13.57;8.40;;;12.80;99.90;;;;;;4988493;28;20040;-81
2023/10/06 04:51:03;;;;;;;13.18;8.52;;;12.80;99.90;;;;;;5000597;28;20049;-81
2023/10/06 04:53:34;;;;;;;12.55;9.00;;;12.80;99.90;;;;;;4993164;28;20176;-81
2023/10/06 04:56:03;;;;;;;16.88;8.82;;;12.80;99.90;;;;;;4992291;28;20428;-81
2023/10/06 04:58:29;;;;;;;18.20;8.73;;;12.80;99.90;;;;;;4999925;28;20043;-81
2023/10/06 05:00:59;;;;;;;16.60;9.57;;;12.70;99.90;;;;;;4968000;28;20108;-81
2023/10/06 05:03:26;;;;;;;16.98;9.07;;;12.70;99.90;;;;;;5007926;28;20052;-81
2023/10/06 05:05:55;;;;;;;16.70;9.98;;;12.70;99.90;;;;;;4973100;28;20054;-81
2023/10/06 05:08:24;;;;;;;15.60;9.20;;;12.60;99.90;;;;;;4988709;28;20061;-82
2023/10/06 05:10:51;;;;;;;14.70;9.25;;;12.60;99.90;;;;;;4998690;28;20438;-81
2023/10/06 05:13:17;;;;;;;16.13;10.10;;;12.60;99.90;;;;;;4981176;28;20925;-82
2023/10/06 05:15:43;;;;;;;17.23;9.77;;;12.60;99.90;;;;;;4997929;28;20515;-81
2023/10/06 05:18:15;;;;;;;16.63;10.00;;;12.60;99.90;;;;;;4997589;28;20063;-81
2023/10/06 05:20:42;;;;;;;19.30;10.00;;;12.60;99.90;;;;;;4972799;28;20382;-81
2023/10/06 05:23:14;;;;;;;16.75;10.38;;;12.60;99.90;;;;;;5004748;28;20041;-82
2023/10/06 05:25:40;;;;;;;20.13;10.35;;;12.50;99.90;;;;;;4988583;28;20069;-81
2023/10/06 05:28:16;;;;;;;15.13;9.45;;;12.50;99.90;;;;;;4997454;28;20061;-82
2023/10/06 05:30:43;;;;;;;20.70;10.60;;;12.50;99.90;;;;;;5002233;28;20059;-81
2023/10/06 05:33:09;;;;;;;14.68;10.15;;;12.50;99.90;;;;;;4999025;28;20081;-82
2023/10/06 05:35:41;;;;;;;20.08;10.35;;;12.50;99.90;;;;;;4993808;28;20045;-82
2023/10/06 05:38:08;;;;;;;19.83;11.00;;;12.50;99.90;;;;;;5002349;28;20408;-81
2023/10/06 05:40:37;;;;;;;14.27;10.32;;;12.50;99.90;;;;;;4999111;28;20374;-81
2023/10/06 05:43:04;;;;;;;16.20;10.80;;;12.50;99.90;;;;;;4988243;28;20049;-80
2023/10/06 05:45:30;;;;;;;18.17;10.63;;;12.50;99.90;;;;;;5003700;28;20117;-81
2023/10/06 05:47:58;;;;;;;14.38;9.70;;;12.50;99.90;;;;;;4973122;28;20053;-81
2023/10/06 05:50:28;;;;;;;15.27;10.10;;;12.50;99.90;;;;;;4997174;28;20056;-80
2023/10/06 05:52:56;;;;;;;17.75;11.00;;;12.50;99.90;;;;;;5000795;28;20093;-79
2023/10/06 05:55:22;;;;;;;15.63;9.57;;;12.50;99.90;;;;;;4991829;28;20129;-81
2023/10/06 05:57:52;;;;;;;18.13;10.48;;;12.50;99.90;;;;;;4978304;28;20470;-81
2023/10/06 06:00:24;;;;;;;17.40;10.20;;;12.50;99.90;;;;;;4970634;28;20042;-81
2023/10/06 06:02:52;;;;;;;20.42;10.73;;;12.50;99.90;;;;;;4992999;28;20049;-81
2023/10/06 06:05:17;;;;;;;20.05;11.23;;;12.50;99.90;;;;;;4983774;28;20128;-81
2023/10/06 06:07:43;;;;;;;15.75;10.00;;;12.60;99.90;;;;;;5009848;28;20505;-81
2023/10/06 06:10:13;;;;;;;15.57;10.30;;;12.60;99.90;;;;;;5007884;28;20445;-81
2023/10/06 06:12:42;;;;;;;16.42;10.23;;;12.70;99.90;;;;;;5002787;28;20041;-82
2023/10/06 06:15:11;;;;;;;14.88;9.02;;;12.70;99.90;;;;;;4987244;28;20034;-81
2023/10/06 06:17:37;;;;;;;19.05;10.20;;;12.70;99.90;;;;;;4997704;28;20054;-81
2023/10/06 06:20:07;;;;;;;14.77;9.52;;;12.80;99.90;;;;;;4993350;28;20112;-81
2023/10/06 06:22:36;;;;;;;15.60;9.30;;;12.80;99.90;;;;;;4989309;28;20052;-81
2023/10/06 06:25:06;;;;;;;18.50;9.57;;;12.80;99.90;;;;;;4979936;28;20050;-81
2023/10/06 06:27:32;;;;;;;15.48;9.45;;;12.80;99.90;;;;;;5014290;28;20045;-81
2023/10/06 06:29:59;;;;;;;13.73;8.63;;;12.80;99.90;;;;;;4995440;28;20496;-80
2023/10/06 06:32:25;;;;;;;14.27;8.85;;;12.80;99.90;;;;;;4996272;28;20038;-81
2023/10/06 06:34:53;;;;;;;13.80;8.93;;;12.90;99.90;;;;;;5003793;28;20171;-81
2023/10/06 06:37:20;;;;;;;14.25;8.75;;;12.90;99.90;;;;;;4976060;28;20064;-83
2023/10/06 06:39:46;;;;;;;14.00;9.02;;;12.90;99.90;;;;;;4976819;28;20057;-81
2023/10/06 06:42:12;;;;;;;14.30;8.20;;;13.00;99.90;;;;;;4995578;28;20049;-81
2023/10/06 06:44:38;;;;;;;15.23;8.30;;;13.00;99.90;;;;;;4961928;28;20042;-80
2023/10/06 06:47:03;;;;;;;12.73;8.07;;;13.10;99.90;;;;;;4974427;28;20053;-81
2023/10/06 06:49:30;;;;;;;17.52;8.02;;;13.10;99.90;;;;;;4975772;28;20982;-83
2023/10/06 06:51:58;;;;;;;14.32;8.00;;;13.10;99.90;;;;;;4962017;28;20084;-81
2023/10/06 06:54:27;;;;;;;13.23;7.68;;;13.20;99.90;;;;;;4976431;28;20491;-80
2023/10/06 06:56:53;;;;;;;14.05;7.72;;;13.20;99.90;;;;;;4995137;28;20072;-80
2023/10/06 06:59:20;;;;;;;14.63;8.05;;;13.20;99.90;;;;;;4979763;28;20042;-80
2023/10/06 07:01:47;;;;;;;14.88;7.97;;;13.30;99.90;;;;;;4998684;28;20527;-80
2023/10/06 07:04:14;;;;;;;14.70;7.38;;;13.30;99.90;;;;;;4993619;28;20449;-80
2023/10/06 07:06:40;;;;;;;13.05;7.85;;;13.30;99.90;;;;;;5003456;28;20069;-80
2023/10/06 07:09:12;;;;;;;15.88;7.65;;;13.40;99.90;;;;;;4986807;28;20044;-79
2023/10/06 07:11:41;;;;;;;17.85;7.80;;;13.40;99.90;;;;;;4986809;28;20038;-80
2023/10/06 07:14:08;;;;;;;13.27;8.27;;;13.50;99.90;;;;;;4995920;28;20464;-81
2023/10/06 07:16:35;;;;;;;14.25;8.05;;;13.50;99.90;;;;;;4992059;28;20037;-80
2023/10/06 07:19:01;;;;;;;11.30;7.47;;;13.50;99.90;;;;;;4996719;28;20042;-80
2023/10/06 07:21:28;;;;;;;13.75;7.38;;;13.60;99.90;;;;;;4996009;28;20037;-82
2023/10/06 07:23:56;;;;;;;15.85;7.63;;;13.60;99.90;;;;;;4977373;28;20038;-80
2023/10/06 07:26:22;;;;;;;15.73;7.82;;;13.70;99.90;;;;;;4966568;28;20061;-79
2023/10/06 07:28:56;;;;;;;14.20;7.47;;;13.60;99.90;;;;;;5007551;28;20069;-80
2023/10/06 07:31:24;;;;;;;12.50;7.75;;;13.70;99.90;;;;;;4990248;28;20049;-80
2023/10/06 07:33:54;;;;;;;11.32;7.32;;;13.70;99.90;;;;;;5009380;28;20057;-80
2023/10/06 07:36:20;;;;;;;13.32;6.90;;;13.70;99.90;;;;;;4974121;28;20548;-82
2023/10/06 07:38:48;;;;;;;13.55;7.38;;;13.70;99.90;;;;;;5006498;28;20034;-82
2023/10/06 07:41:24;;;;;;;17.42;7.03;;;13.70;99.90;;;;;;4996599;28;20049;-81
2023/10/06 07:43:50;;;;;;;14.75;7.28;;;13.80;99.90;;;;;;4998005;28;20053;-81
2023/10/06 07:46:16;;;;;;;14.93;7.30;;;13.80;99.90;;;;;;5005716;28;20604;-82
2023/10/06 07:48:46;;;;;;;17.58;7.22;;;13.80;99.90;;;;;;5009264;28;20049;-81
2023/10/06 07:51:16;;;;;;;11.55;6.97;;;13.80;99.90;;;;;;5000354;28;20484;-80
2023/10/06 07:53:43;;;;;;;17.63;7.68;;;13.80;99.90;;;;;;4986180;28;20053;-80
2023/10/06 07:56:09;;;;;;;17.63;6.82;;;13.90;99.90;;;;;;5002954;28;20050;-82
2023/10/06 07:58:41;;;;;;;13.05;7.15;;;13.90;99.90;;;;;;4996534;28;20057;-81
2023/10/06 08:01:08;;;;;;;14.27;7.63;;;13.90;99.90;;;;;;5019846;28;20413;-82
2023/10/06 08:03:38;;;;;;;12.52;7.13;;;14.00;99.90;;;;;;4987587;28;20041;-74
2023/10/06 08:06:05;;;;;;;13.65;7.05;;;14.00;99.90;;;;;;5000706;28;20046;-81
2023/10/06 08:08:33;;;;;;;14.07;7.90;;;14.00;99.90;;;;;;4996675;28;20057;-80
2023/10/06 08:11:02;;;;;;;12.40;7.03;;;14.10;99.90;;;;;;5005962;28;20511;-80
2023/10/06 08:13:34;;;;;;;12.77;7.68;;;14.10;99.90;;;;;;5003745;28;20042;-80
2023/10/06 08:16:00;;;;;;;11.32;6.93;;;14.10;99.90;;;;;;4988419;28;20452;-80
2023/10/06 08:18:30;;;;;;;15.77;6.95;;;14.20;99.90;;;;;;4999395;28;20432;-81
2023/10/06 08:21:02;;;;;;;14.98;7.28;;;14.20;99.90;;;;;;4978828;28;20046;-81
2023/10/06 08:23:29;;;;;;;15.55;7.70;;;14.20;99.90;;;;;;5002137;28;20108;-82
2023/10/06 08:25:56;;;;;;;12.07;7.07;;;14.20;99.90;;;;;;5000046;28;20513;-81
2023/10/06 08:28:26;;;;;;;11.85;7.35;;;14.20;99.90;;;;;;5007309;28;20421;-80
2023/10/06 08:30:53;;;;;;;11.15;7.05;;;14.30;99.90;;;;;;4995546;28;20468;-82
2023/10/06 08:33:19;;;;;;;12.88;6.80;;;14.30;99.90;;;;;;4995394;28;20041;-80
2023/10/06 08:35:44;;;;;;;13.15;7.22;;;14.30;99.90;;;;;;5011996;28;20038;-79
2023/10/06 08:38:10;;;;;;;14.55;7.22;;;14.40;99.90;;;;;;5011724;28;20565;-79
2023/10/06 08:40:41;;;;;;;16.90;8.13;;;14.50;99.90;;;;;;4995063;28;20405;-81
2023/10/06 08:43:08;;;;;;;20.00;8.20;;;14.50;99.90;;;;;;5011484;28;20448;-81
2023/10/06 08:45:40;;;;;;;12.98;7.80;;;14.50;99.90;;;;;;4995593;28;20564;-82
2023/10/06 08:48:10;;;;;;;12.27;8.10;;;14.50;99.90;;;;;;4995442;28;20041;-81
2023/10/06 08:50:37;;;;;;;12.70;7.50;;;14.40;99.90;;;;;;5011436;28;20041;-82
2023/10/06 08:53:05;;;;;;;13.35;7.43;;;14.40;99.90;;;;;;5011351;28;20041;-81
2023/10/06 08:55:31;;;;;;;11.10;7.32;;;14.50;99.90;;;;;;5011501;28;20042;-81
2023/10/06 08:57:58;;;;;;;12.05;7.80;;;14.50;99.90;;;;;;4994657;28;20077;-81
2023/10/06 09:00:25;;;;;;;13.70;7.68;;;14.50;99.90;;;;;;4994994;28;20038;-82
2023/10/06 09:02:54;;;;;;;14.93;8.27;;;14.50;99.90;;;;;;4995223;28;20096;-81
2023/10/06 09:05:20;;;;;;;15.73;7.93;;;14.70;99.90;;;;;;5011013;28;20509;-82
2023/10/06 09:08:05;;;;;;;13.43;7.50;;;14.80;99.90;;;;;;4995111;28;20401;-81
2023/10/06 09:10:35;;;;;;;12.80;7.85;;;15.00;99.90;;;;;;5011096;28;20050;-80
2023/10/06 09:13:01;;;;;;;14.98;7.82;;;15.10;99.90;;;;;;5011146;28;20092;-82
2023/10/06 09:15:30;;;;;;;17.98;7.63;;;15.20;99.90;;;;;;5011414;28;20030;-81
2023/10/06 09:17:59;;;;;;;15.15;8.43;;;15.20;99.90;;;;;;4995363;28;20038;-83
2023/10/06 09:20:36;;;;;;;11.75;8.43;;;15.20;99.90;;;;;;5011229;28;20534;-81
2023/10/06 09:23:03;;;;;;;15.73;8.35;;;15.20;99.90;;;;;;5011370;28;20054;-82
2023/10/06 09:25:45;;;;;;;13.80;8.13;;;15.20;99.90;;;;;;4994818;28;20129;-82
2023/10/06 09:28:16;;;;;;;19.13;8.40;;;15.40;99.90;;;;;;5010925;28;20513;-80
2023/10/06 09:31:00;;;;;;;12.32;7.22;;;15.40;99.90;;;;;;5011116;28;20086;-81
2023/10/06 09:33:38;;;;;;;11.05;7.78;;;15.70;99.90;;;;;;5010836;28;20416;-82
2023/10/06 09:36:07;;;;;;;12.18;7.53;;;15.80;99.90;;;;;;5010645;28;20042;-81
2023/10/06 09:38:34;;;;;;;11.82;6.80;;;16.00;99.90;;;;;;4995098;28;20037;-82
2023/10/06 09:40:59;;;;;;;13.20;7.28;;;16.10;99.90;;;;;;4994511;28;20042;-83
2023/10/06 09:43:27;;;;;;;13.77;7.50;;;16.20;99.90;;;;;;4994629;28;20547;-83
2023/10/06 09:45:57;;;;;;;12.32;6.75;;;16.20;99.90;;;;;;4994560;28;20478;-82
2023/10/06 09:48:33;;;;;;;13.95;7.55;;;16.30;99.90;;;;;;4990168;28;20068;-81
2023/10/06 09:51:05;;;;;;;16.15;7.50;;;16.20;99.90;;;;;;5011096;28;20125;-81
2023/10/06 09:53:32;;;;;;;;;;;16.20;99.90;;;;;;5011194;28;20448;-79
2023/10/06 09:55:58;;;;;;;11.02;6.97;;;16.10;99.90;;;;;;5010892;28;19925;-79
2023/10/06 09:58:24;;;;;;;13.43;6.82;;;16.20;99.90;;;;;;5010703;28;20034;-80
2023/10/06 10:00:50;;;;;;;12.48;6.72;;;16.10;99.90;;;;;;4994516;28;20077;-81
2023/10/06 10:03:18;;;;;;;12.70;6.72;;;16.10;99.90;;;;;;4994247;28;20080;-81
2023/10/06 10:05:45;;;;;;;15.20;7.03;;;16.10;99.90;;;;;;5010497;28;20501;-79
2023/10/06 10:08:13;;;;;;;14.23;6.53;;;16.10;99.90;;;;;;5010496;28;20096;-80
2023/10/06 10:10:44;;;;;;;11.63;6.32;;;16.10;99.90;;;;;;4993800;28;20034;-81
2023/10/06 10:13:19;;;;;;;12.05;6.57;;;16.20;99.90;;;;;;4988234;28;20105;-80
2023/10/06 10:16:02;;;;;;;13.35;6.60;;;16.20;99.90;;;;;;4994603;28;20049;-81
2023/10/06 10:18:39;;;;;;;12.85;6.32;;;16.20;99.90;;;;;;4995382;28;20054;-79
2023/10/06 10:21:11;;;;;;;15.02;6.90;;;16.20;99.90;;;;;;4997833;28;20049;-80
2023/10/06 10:23:43;;;;;;;14.15;6.85;;;16.30;99.90;;;;;;5014186;28;20057;-81
2023/10/06 10:26:37;;;;;;;12.25;5.75;;;16.30;99.90;;;;;;5014383;28;20042;-80
2023/10/06 10:29:12;;;;;;;10.75;5.80;;;16.30;99.90;;;;;;5010284;28;20512;-81
2023/10/06 10:31:38;;;;;;;10.50;5.53;;;16.40;99.90;;;;;;5014096;28;20052;-81
2023/10/06 10:34:05;;;;;;;10.95;5.80;;;16.40;99.90;;;;;;4997573;28;20042;-81
2023/10/06 10:36:32;;;;;;;10.60;5.88;;;16.60;99.90;;;;;;5014400;28;20049;-80
2023/10/06 10:39:09;;;;;;;12.73;5.90;;;16.70;99.90;;;;;;5013908;28;20096;-79
2023/10/06 10:41:38;;;;;;;12.70;6.20;;;16.90;99.90;;;;;;5013928;28;20088;-80
2023/10/06 10:44:06;;;;;;;12.13;5.63;;;17.00;99.90;;;;;;5013864;28;20042;-80
2023/10/06 10:46:49;;;;;;;11.35;6.05;;;17.10;99.90;;;;;;5013879;28;20053;-81
2023/10/06 10:49:20;;;;;;;11.10;5.60;;;17.10;99.90;;;;;;5008172;28;20045;-80
2023/10/06 10:51:55;;;;;;;12.48;5.82;;;17.20;99.90;;;;;;5000237;28;20563;-79
2023/10/06 10:54:22;;;;;;;15.80;6.63;;;17.30;99.90;;;;;;5013856;28;20034;-78
2023/10/06 10:56:51;;;;;;;11.32;6.47;;;17.30;99.90;;;;;;4999774;28;20126;-79
2023/10/06 10:59:18;;;;;;;8.27;5.50;;;17.50;99.90;;;;;;4997265;28;20460;-79
2023/10/06 11:01:51;;;;;;;15.48;6.38;;;17.70;99.90;;;;;;5011846;28;20038;-78
2023/10/06 11:04:24;;;;;;;12.95;5.90;;;17.90;99.90;;;;;;5013355;28;20045;-78
2023/10/06 11:06:51;;;;;;;10.43;6.32;;;18.10;99.90;;;;;;5011850;28;20052;-79
2023/10/06 11:09:37;;;;;;;11.80;6.10;;;18.30;99.90;;;;;;4997336;28;20045;-78
2023/10/06 11:12:24;;;;;;;9.73;5.90;;;18.20;99.90;;;;;;5013320;28;20054;-78
2023/10/06 11:14:51;;;;;;;10.65;5.68;;;18.20;99.90;;;;;;5013054;28;20034;-78
2023/10/06 11:17:35;;;;;;;10.70;5.10;;;18.10;99.90;;;;;;5013367;28;20524;-78
2023/10/06 11:20:27;;;;;;;11.52;5.93;;;18.10;99.90;;;;;;5013265;28;20563;-78
2023/10/06 11:23:01;;;;;;;10.30;5.32;;;18.00;99.90;;;;;;5013963;28;20046;-77
2023/10/06 11:25:36;;;;;;;10.70;5.40;;;18.10;99.90;;;;;;5013712;28;20044;-76
2023/10/06 11:28:06;;;;;;;12.50;5.35;;;18.00;99.90;;;;;;5013403;28;20104;-79
2023/10/06 11:30:34;;;;;;;9.90;4.88;;;18.00;99.90;;;;;;4997780;28;20041;-77
2023/10/06 11:33:02;;;;;;;13.23;5.90;;;18.00;99.90;;;;;;5012757;28;20435;-78
2023/10/06 11:35:29;;;;;;;12.30;5.75;;;17.90;99.90;;;;;;4996571;28;20056;-78
2023/10/06 11:37:55;;;;;;;10.50;5.10;;;17.90;99.90;;;;;;4996611;28;20077;-79
2023/10/06 11:40:24;;;;;;;8.90;4.82;;;17.90;99.90;;;;;;4996510;28;20053;-78
2023/10/06 11:42:50;;;;;;;9.35;4.50;;;17.90;99.90;;;;;;5012722;28;20041;-77
2023/10/06 11:45:27;;;;;;;12.35;5.03;;;17.80;99.90;;;;;;5012641;28;20053;-77
2023/10/06 11:47:53;;;;;;;10.50;5.47;;;17.80;99.90;;;;;;5013341;28;20048;-74
2023/10/06 11:50:28;;;;;;;6.95;4.30;;;17.80;99.90;;;;;;4997096;28;20436;-77
2023/10/06 11:52:55;;;;;;;11.48;5.00;;;17.80;99.90;;;;;;4999425;28;20043;-78
2023/10/06 11:55:34;;;;;;;13.63;5.57;;;17.80;99.90;;;;;;4978166;28;20045;-77
2023/10/06 11:58:04;;;;;;;10.88;4.65;;;17.80;99.90;;;;;;4992308;28;20038;-77
2023/10/06 12:00:39;;;;;;;10.55;5.05;;;17.80;99.90;;;;;;5012686;28;20046;-77
2023/10/06 12:03:06;;;;;;;9.98;4.93;;;17.70;99.90;;;;;;4996239;28;20041;-75
2023/10/06 12:05:33;;;;;;;11.60;4.82;;;17.70;99.90;;;;;;4996411;28;20049;-77
2023/10/06 12:08:03;;;;;;;10.23;5.88;;;17.70;99.90;;;;;;5013228;28;20042;-77
2023/10/06 12:10:29;;;;;;;9.73;5.05;;;17.70;99.90;;;;;;4996913;28;20131;-77
2023/10/06 12:12:55;;;;;;;12.93;5.30;;;17.70;99.90;;;;;;5013736;28;20100;-76
2023/10/06 12:15:21;;;;;;;11.40;4.90;;;17.70;99.90;;;;;;5013032;28;20493;-77
2023/10/06 12:17:47;;;;;;;9.18;5.10;;;17.70;99.90;;;;;;5003300;28;20042;-78
2023/10/06 12:20:16;;;;;;;10.27;5.35;;;17.70;99.90;;;;;;5008703;28;20056;-77
2023/10/06 12:22:47;;;;;;;10.90;5.57;;;17.70;99.90;;;;;;5012305;28;20174;-76
2023/10/06 12:25:17;;;;;;;10.20;5.38;;;17.80;99.90;;;;;;4996189;28;20128;-77
2023/10/06 12:27:43;;;;;;;9.70;5.47;;;17.80;99.90;;;;;;5012358;28;20042;-76
2023/10/06 12:30:17;;;;;;;12.73;5.40;;;17.90;99.90;;;;;;4996044;28;20052;-76
2023/10/06 12:32:45;;;;;;;10.02;5.03;;;18.00;99.90;;;;;;5000237;28;20042;-77
2023/10/06 12:35:12;;;;;;;8.77;4.78;;;18.10;99.90;;;;;;5013634;28;20070;-77
2023/10/06 12:37:41;;;;;;;9.75;4.95;;;18.30;99.90;;;;;;5012284;28;20485;-76
2023/10/06 12:40:12;;;;;;;10.07;5.07;;;18.40;99.90;;;;;;4996513;28;20516;-76
2023/10/06 12:42:42;;;;;;;8.48;4.85;;;18.40;99.90;;;;;;5011661;28;20037;-77
2023/10/06 12:45:17;;;;;;;12.10;5.07;;;18.40;99.90;;;;;;4976250;28;20494;-79
2023/10/06 12:47:47;;;;;;;9.80;5.13;;;18.40;99.90;;;;;;5008532;28;20096;-78
2023/10/06 12:50:20;;;;;;;10.27;5.35;;;18.50;99.90;;;;;;5011507;28;20439;-77
2023/10/06 12:52:54;;;;;;;14.77;5.63;;;18.70;99.90;;;;;;4995684;28;20539;-79
2023/10/06 12:55:27;;;;;;;10.68;5.70;;;18.80;99.90;;;;;;5011965;28;20096;-78
2023/10/06 12:57:53;;;;;;;12.55;5.47;;;18.90;99.90;;;;;;4996657;28;20121;-77
2023/10/06 13:00:19;;;;;;;12.38;5.50;;;19.00;99.90;;;;;;5012142;28;20034;-78
2023/10/06 13:02:47;;;;;;;12.10;6.05;;;19.00;99.90;;;;;;5000580;28;20035;-77
2023/10/06 13:05:16;;;;;;;13.05;5.65;;;19.00;99.90;;;;;;5010937;28;20100;-79
2023/10/06 13:07:51;;;;;;;9.73;5.43;;;18.90;99.90;;;;;;4979789;28;20046;-76